METAR stanice u blizini

 

LYNI - Nis, Yugoslavia
Distance from station: JZ 40km
Ažurirano: 25/04/2019 09:30
Vedro
Vedro
 Pravac vetra IJI
Vetar: IJI 7 km/h
Temperatura: 18°C
Tačka rose: 9°C
Vlažnost: 56%
Pritisak: 1023 hPa
Pregled: Vedro
Vidljivost: greater than 10 km
2019/04/25 07:30 LYNI 250730Z 11004KT 040V150 CAVOK 18/09 Q1023 NOSIG
LYKV - Kraljevo, Yugoslavia
Distance from station: ZSZ 136km
Ažurirano: 25/04/2019 09:30
Vedro
Vedro
 Pravac vetra JJI
Vetar: JJI 15 km/h
Temperatura: 17°C
Tačka rose: 10°C
Vlažnost: 64%
Pritisak: 1022 hPa
Pregled: Vedro
Vidljivost: greater than 10 km
2019/04/25 07:30 LYKV 250730Z 16008KT 130V190 CAVOK 17/10 Q1022 NOSIG
LBSF - Sofia (observato, Bulgaria
Distance from station: JI 138km
Ažurirano: 25/04/2019 09:30
Vedro
Vedro
 Pravac vetra ISI
Vetar: ISI 6 km/h
Temperatura: 15°C
Tačka rose: 9°C
Vlažnost: 68%
Pritisak: 1024 hPa
Pregled: Vedro
Vidljivost: greater than 10 km
2019/04/25 07:30 LBSF 250730Z 07003KT 350V150 CAVOK 15/09 Q1024 NOSIG
 
BKPR - Prishtina, Yugoslavia
Distance from station: JZ 147km
Ažurirano: 25/04/2019 09:30
Vedro
Vedro
 Pravac vetra J
Vetar: J 11 km/h
Temperatura: 16°C
Tačka rose: 9°C
Vlažnost: 63%
Pritisak: 1024 hPa
Pregled: Vedro
Vidljivost: greater than 10 km
2019/04/25 07:30 BKPR 250730Z 17006KT 140V200 CAVOK 16/09 Q1024 NOSIG
LRCV - Craiova, Romania
Distance from station: SI 154km
Ažurirano: 25/04/2019 09:30
Vedro
Vedro
 Pravac vetra I
Vetar: I 11 km/h
Temperatura: 13°C
Tačka rose: 6°C
Vlažnost: 63%
Pritisak: 1024 hPa
Pregled: Vedro
Vidljivost: greater than 10 km
2019/04/25 07:30 LRCV 250730Z 08006KT 040V110 CAVOK 13/06 Q1024
LWSK - Skopje/Petrovac, Macedonia
Distance from station: JJZ 185km
Ažurirano: 25/04/2019 09:30
Vedro
Vedro
 Pravac vetra calm
Vetar: Tišina
Temperatura: 16°C
Tačka rose: 9°C
Vlažnost: 63%
Pritisak: 1025 hPa
Pregled: Vedro
Vidljivost: greater than 10 km
2019/04/25 07:30 LWSK 250730Z 00000KT CAVOK 16/09 Q1025 NOSIG
 
LYVR - Vrsac, Yugoslavia
Distance from station: SSZ 189km
Ažurirano: 25/04/2019 09:30
Vedro
Vedro
 Pravac vetra JI
Vetar: JI 37 km/h
Temperatura: 19°C
Tačka rose: 8°C
Vlažnost: 49%
Pritisak: 1021 hPa
Pregled: Vedro
Vidljivost: greater than 10 km
2019/04/25 07:30 LYVR 250730Z 14020KT CAVOK 19/08 Q1021 NOSIG
LYUZ - Uzice-Ponikve, Yugoslavia
Distance from station: Z 207km
Ažurirano: 25/04/2019 09:30
Vedro
Vedro
 Pravac vetra JJZ
Vetar: JJZ 11 km/h
Temperatura: 17°C
Tačka rose: 6°C
Vlažnost: 49%
Pritisak: 1023 hPa
Pregled: Vedro
Vidljivost: greater than 10 km
2019/04/25 07:30 LYUZ 250730Z 20006KT 100V260 CAVOK 17/06 Q1023
LYBE - Belgrade/Surcin, Yugoslavia
Distance from station: SZ 209km
Ažurirano: 25/04/2019 09:30
Vedro
Vedro
 Pravac vetra JI
Vetar: JI 19 km/h
Temperatura: 20°C
Tačka rose: 10°C
Vlažnost: 53%
Pritisak: 1020 hPa
Pregled: Vedro
Vidljivost: greater than 10 km
2019/04/25 07:30 LYBE 250730Z 14010KT CAVOK 20/10 Q1020 NOSIG
 
LYBT - Batajnica, Yugoslavia
Distance from station: SZ 219km
Ažurirano: 25/04/2019 09:30
Vedro
Vedro
 Pravac vetra I
Vetar: I 17 km/h
Temperatura: 19°C
Tačka rose: 10°C
Vlažnost: 56%
Pritisak: 1020 hPa
Pregled: Vedro
Vidljivost: greater than 10 km
2019/04/25 07:30 LYBT 250730Z 10009KT CAVOK 19/10 Q1020 NOSIG
LRTR - Timisoara/Giarma, Romania
Distance from station: SSZ 260km
Ažurirano: 25/04/2019 09:30
Vedro
Vedro
 Pravac vetra JJI
Vetar: JJI 15 km/h
Temperatura: 19°C
Tačka rose: 11°C
Vlažnost: 60%
Pritisak: 1021 hPa
Pregled: Vedro
Vidljivost: greater than 10 km
2019/04/25 07:30 LRTR 250730Z 15008KT CAVOK 19/11 Q1021
LBPD - Plovdiv, Bulgaria
Distance from station: JI 263km
Ažurirano: 25/04/2019 09:30
Vedro
Vedro
 Pravac vetra varies
Vetar: varies 9 km/h
Temperatura: 15°C
Tačka rose: 9°C
Vlažnost: 68%
Pritisak: 1025 hPa
Oblaci: Vedro
Vidljivost: 10 km
2019/04/25 07:30 LBPD 250730Z AUTO VRB05KT 9999 NCD 15/09 Q1025 NOSIG
 
LYPG - Podgorica(Titogr, Yugoslavia
Distance from station: ZJZ 278km
Ažurirano: 25/04/2019 09:00
Vedro
Vedro
 Pravac vetra SSZ
Vetar: SSZ 7 km/h
Temperatura: 19°C
Tačka rose: 9°C
Vlažnost: 52%
Pritisak: 1022 hPa
Pregled: Vedro
Vidljivost: greater than 10 km
2019/04/25 07:00 LYPG 250700Z 33004KT CAVOK 19/09 Q1022 NOSIG
LBGO - Gorna Orechovist, Bulgaria
Distance from station: I 285km
Ažurirano: 25/04/2019 09:30
Vedro
Vedro
 Pravac vetra varies
Vetar: varies 4 km/h
Temperatura: 17°C
Tačka rose: 10°C
Vlažnost: 64%
Pritisak: 1024 hPa
Oblaci: Vedro
Vidljivost: 10 km
2019/04/25 07:30 LBGO 250730Z AUTO VRB02KT 9999 NCD 17/10 Q1024 NOSIG
LRSB - Sibiu/Turnisor, Romania
Distance from station: SSI 286km
Ažurirano: 25/04/2019 09:30
Few Clouds
Few Clouds
 Pravac vetra varies
Vetar: varies 4 km/h
Temperatura: 16°C
Tačka rose: 8°C
Vlažnost: 59%
Pritisak: 1023 hPa
Oblaci: Few Clouds
Vidljivost: 10 km
Cloud details: Few Clouds 1219 m
2019/04/25 07:30 LRSB 250730Z VRB02KT 9999 FEW040 16/08 Q1023 R27/29//95 NOSIG
 
LWOH - Ohrid, Macedonia
Distance from station: JJZ 292km
Ažurirano: 25/04/2019 09:30
Vedro
Vedro
 Pravac vetra JJI
Vetar: JJI 6 km/h
Temperatura: 13°C
Tačka rose: 9°C
Vlažnost: 77%
Pritisak: 1025 hPa
Pregled: Vedro
Vidljivost: greater than 10 km
2019/04/25 07:30 LWOH 250730Z 16003KT CAVOK 13/09 Q1025
LQTZ - Tuzla, Yugoslavia
Distance from station: ZSZ 298km
Ažurirano: 25/04/2019 09:30
Vedro
Vedro
 Pravac vetra varies
Vetar: varies 6 km/h
Temperatura: 21°C
Tačka rose: 12°C
Vlažnost: 57%
Pritisak: 1019 hPa
Pregled: Vedro
Vidljivost: greater than 10 km
2019/04/25 07:30 LQTZ 250730Z VRB03KT CAVOK 21/12 Q1019
LRAR - Arad, Romania
Distance from station: SSZ 301km
Ažurirano: 25/04/2019 09:30
Vedro
Vedro
 Pravac vetra J
Vetar: J 24 km/h
Temperatura: 19°C
Tačka rose: 8°C
Vlažnost: 49%
Pritisak: 1020 hPa
Pregled: Vedro
Vidljivost: greater than 10 km
2019/04/25 07:30 LRAR 250730Z 18013KT 150V210 CAVOK 19/08 Q1020
 
LYTV - Tivat, Yugoslavia
Distance from station: ZJZ 315km
Ažurirano: 25/04/2019 09:30
Vedro
Vedro
 Pravac vetra varies
Vetar: varies 4 km/h
Temperatura: 20°C
Tačka rose: 12°C
Vlažnost: 60%
Pritisak: 1022 hPa
Pregled: Vedro
Vidljivost: greater than 10 km
2019/04/25 07:30 LYTV 250730Z VRB02KT CAVOK 20/12 Q1022 NOSIG
LATI - Tirana, Albania
Distance from station: JZ 316km
Ažurirano: 25/04/2019 09:20
Delimično oblačno
Delimično oblačno
 Pravac vetra varies
Vetar: varies 4 km/h
Temperatura: 19°C
Tačka rose: 12°C
Vlažnost: 64%
Pritisak: 1022 hPa
Oblaci: Delimično oblačno
Vidljivost: 7 km
2019/04/25 07:20 LATI 250720Z VRB02KT 7000 NSC 19/12 Q1022 NOSIG
LQBK - Banja Luka, Yugoslavia
Distance from station: SZ 426km
Ažurirano: 25/04/2019 09:30
Vedro
Vedro
 Pravac vetra J
Vetar: J 17 km/h
Temperatura: 21°C
Tačka rose: 12°C
Vlažnost: 57%
Pritisak: 1019 hPa
Pregled: Vedro
Vidljivost: greater than 10 km
2019/04/25 07:30 LQBK 250730Z 19009KT CAVOK 21/12 Q1019 NOSIG
 
LDOS - Osijek, Croatia
Distance from station: SSZ 360km
Ažurirano: 25/04/2019 09:30
Vedro
Vedro
 Pravac vetra J
Vetar: J 13 km/h
Temperatura: 19°C
Tačka rose: 13°C
Vlažnost: 68%
Pritisak: 1019 hPa
Pregled: Vedro
Vidljivost: greater than 10 km
2019/04/25 07:30 LDOS 250730Z 17007KT CAVOK 19/13 Q1019
LDDU - Dubrovnik-Cilipi, Croatia
Distance from station: JZ 352km
Ažurirano: 25/04/2019 09:30
Vedro
Vedro
 Pravac vetra JI
Vetar: JI 19 km/h
Temperatura: 20°C
Tačka rose: 10°C
Vlažnost: 53%
Pritisak: 1022 hPa
Pregled: Vedro
Vidljivost: greater than 10 km
2019/04/25 07:30 LDDU 250730Z 14010KT 110V170 CAVOK 20/10 Q1022 NOSIG
LQMO - Mostar Airport, Bosnia-Herzegovina
Distance from station: Z 359km
Ažurirano: 25/04/2019 09:30
Vedro
Vedro
 Pravac vetra varies
Vetar: varies 4 km/h
Temperatura: 18°C
Tačka rose: 11°C
Vlažnost: 64%
Pritisak: 1021 hPa
Pregled: Vedro
Vidljivost: greater than 10 km
2019/04/25 07:30 LQMO 250730Z VRB02KT CAVOK 18/11 Q1021
 
LQSA - Sarajevo/Butmir, Yugoslavia
Distance from station: Z 311km
Ažurirano: 25/04/2019 09:30
Vedro
Vedro
 Pravac vetra ZSZ
Vetar: ZSZ 6 km/h
Temperatura: 17°C
Tačka rose: 10°C
Vlažnost: 64%
Pritisak: 1021 hPa
Pregled: Vedro
Vidljivost: greater than 10 km
2019/04/25 07:30 LQSA 250730Z 29003KT 210V350 CAVOK 17/10 Q1021 NOSIG
LDSP - Split/Kastel Sta, Croatia
Distance from station: Z 468km
Ažurirano: 25/04/2019 09:30
Vedro
Vedro
 Pravac vetra IJI
Vetar: IJI 15 km/h
Temperatura: 20°C
Tačka rose: 12°C
Vlažnost: 60%
Pritisak: 1021 hPa
Pregled: Vedro
Vidljivost: greater than 10 km
2019/04/25 07:30 LDSP 250730Z 12008KT 090V150 CAVOK 20/12 Q1021 NOSIG
LDZD - Zadar/Zemunik, Croatia
Distance from station: ZSZ 567km
Ažurirano: 25/04/2019 09:30
Vedro
Vedro
 Pravac vetra JI
Vetar: JI 13 km/h
Temperatura: 19°C
Tačka rose: 12°C
Vlažnost: 64%
Pritisak: 1021 hPa
Pregled: Vedro
Vidljivost: greater than 10 km
2019/04/25 07:30 LDZD 250730Z 14007KT 110V170 CAVOK 19/12 Q1021 NOSIG
 
LDZA - Zagreb/Pleso, Croatia
Distance from station: SZ 555km
Ažurirano: 25/04/2019 09:30
Vedro
Vedro
 Pravac vetra ZJZ
Vetar: ZJZ 15 km/h
Temperatura: 18°C
Tačka rose: 11°C
Vlažnost: 64%
Pritisak: 1019 hPa
Pregled: Vedro
Vidljivost: greater than 10 km
2019/04/25 07:30 LDZA 250730Z 25008KT 210V340 CAVOK 18/11 Q1019 NOSIG
LJCE - Cerklje, Slovenia
Distance from station: SZ 680km
Ažurirano: 25/04/2019 09:30
Vedro
Vedro
 Pravac vetra JI
Vetar: JI 9 km/h
Temperatura: 19°C
Tačka rose: 11°C
Vlažnost: 60%
Pritisak: 1018 hPa
Pregled: Vedro
Vidljivost: greater than 10 km
2019/04/25 07:30 LJCE 250730Z 14005KT 100V170 CAVOK 19/11 Q1018 RMK BLU
LJMB - Maribor, Slovenia
Distance from station: SZ 616km
Ažurirano: 25/04/2019 09:30
Few Clouds
Few Clouds
 Pravac vetra JJZ
Vetar: JJZ 13 km/h
Temperatura: 18°C
Tačka rose: 11°C
Vlažnost: 64%
Pritisak: 1017 hPa
Oblaci: Few Clouds
Vidljivost: 10 km
Cloud details: Few Clouds 610 m
2019/04/25 07:30 LJMB 250730Z 20007KT 9999 FEW020 18/11 Q1017
 
LJLJ - Ljubljana/Brnik, Slovenia
Distance from station: SZ 671km
Ažurirano: 25/04/2019 09:30
Few Clouds
Few Clouds
 Pravac vetra ZSZ
Vetar: ZSZ 7 km/h
Temperatura: 17°C
Tačka rose: 11°C
Vlažnost: 68%
Pritisak: 1019 hPa
Oblaci: Few Clouds
Vidljivost: 10 km
Cloud details: Few Clouds 914 m
2019/04/25 07:30 LJLJ 250730Z 29004KT 240V340 9999 FEW030 17/11 Q1019 NOSIG
LDRI - Rijeka, Croatia
Distance from station: SZ 650km
Ažurirano: 25/04/2019 09:30
Delimično oblačno
Delimično oblačno
 Pravac vetra J
Vetar: J 9 km/h
Temperatura: 18°C
Tačka rose: 13°C
Vlažnost: 73%
Pritisak: 1021 hPa
Oblaci: Delimično oblačno
Vidljivost: 10 km
Cloud details: Delimično oblačno 823 m
2019/04/25 07:30 LDRI 250730Z 19005KT 140V240 9999 SCT027 18/13 Q1021
LDPL - Pula, Croatia
Distance from station: ZSZ 686km
Ažurirano: 25/04/2019 09:30
Pretežno oblačno
Pretežno oblačno
 Pravac vetra IJI
Vetar: IJI 13 km/h
Temperatura: 16°C
Tačka rose: 14°C
Vlažnost: 88%
Pritisak: 1020 hPa
Oblaci: Pretežno oblačno
Vidljivost: 10 km
Cloud details: Pretežno oblačno 183 m
2019/04/25 07:30 LDPL 250730Z 11007KT 090V160 9999 BKN006 16/14 Q1020 NOSIG
 
LJPZ - Portorož, Slovenia
Distance from station: ZSZ 720km
Ažurirano: 25/04/2019 09:30
Few Clouds
Few Clouds
 Pravac vetra JJI
Vetar: JJI 19 km/h
Temperatura: 20°C
Tačka rose: 13°C
Vlažnost: 64%
Pritisak: 1019 hPa
Oblaci: Few Clouds
Vidljivost: 10 km
Cloud details: Few Clouds 1372 m
2019/04/25 07:30 LJPZ 250730Z 15010KT 120V190 9999 FEW045 20/13 Q1019